Campton, NH

9:44 AM EST on December 21, 2014 (GMT -0500)
Mount Weetamoo | Change Station
CLOSE
Current Station
Personal Weather Station
Location: Campton, NH
Elevation: 1801 ft
Nearby Weather Stations

Elev 1801 ft 43.86 °N, 71.60 °W | Updated 9 minutes ago

Overcast
Overcast
22.1 °F
Feels Like 22 °F
N
0.0
Wind Variable Wind from SE
Gusts 0.0 mph

Today
High -- | Low -- °F
--% Chance of Precip.
Yesterday
High -- | Low -- °F
Precip. -- in
7:17 AM 4:11 PM
Waning Crescent, 0% visible
Pressure 30.35 in
Visibility 1.8 miles
Clouds Scattered Clouds 2600 ft
Mostly Cloudy 3400 ft
Overcast 4200 ft
Windchill 22 °F
Dew Point 20 °F
Humidity 92%
Rainfall 0.00 in
Snow Depth Not available.
UV 0 out of 12
Pollen .10 out of 12
Air Quality Not available.
Flu Activity Not available.
METAR K1P1 211435Z AUTO 00000KT 1 3/4SM -SN SCT026 BKN034 OVC042 M03/M04 A3035 RMK AO2 T10351041

More Conditions Fewer Conditions

Pressure 30.35 in
Visibility 1.8 miles
Clouds Scattered Clouds 2600 ft
Mostly Cloudy 3400 ft
Overcast 4200 ft
Windchill 22 °F
Dew Point 20 °F
Humidity 92%
Rainfall 0.00 in
Snow Depth Not available.
UV 0 out of 12
Pollen .10 out of 12
Air Quality Not available.
Flu Activity Not available.
METAR K1P1 211435Z AUTO 00000KT 1 3/4SM -SN SCT026 BKN034 OVC042 M03/M04 A3035 RMK AO2 T10351041

More Conditions Fewer Conditions

10-Day Weather Forecast

Almanac

Astronomy

Dec. 21, 2014 Rise Set
Actual Time
Civil Twilight
Nautical Twilight
Astronomical Twilight
Moon
Length of Visible Light
Length of Day
Tomorrow will be .
, % of the Moon is Illuminated

Today's Extremes

State Highs State Lows

Community

WunderPhotos

Upload Photos

1,779,395 photos uploaded!

WunderBlogs® & News

Nearby

Air Quality

  Air Quality AQ Index Pollutant
Not available.

Snow Depth

Station Depth Elevation

Earthquake Activity

City Distance Mag. Time & Date
Minimum magnitude displayed is 2.5.

Coastal Water Temperatures

Place Temperature

Nearby Weather Stations